sensor_id;sensor_type;location;lat;lon;timestamp;pressure;altitude;pressure_sealevel;temperature;humidity
48888;BME280;42598;53.802;-1.632;2023-01-31T00:01:16;101267.77;;;3.86;100.00
48888;BME280;42598;53.802;-1.632;2023-01-31T00:03:44;101261.14;;;4.57;95.50
48888;BME280;42598;53.802;-1.632;2023-01-31T00:06:14;101254.67;;;4.21;94.56
48888;BME280;42598;53.802;-1.632;2023-01-31T00:08:43;101254.50;;;3.78;96.01
48888;BME280;42598;53.802;-1.632;2023-01-31T00:11:11;101245.98;;;4.17;93.58
48888;BME280;42598;53.802;-1.632;2023-01-31T00:13:39;101247.73;;;4.44;92.63
48888;BME280;42598;53.802;-1.632;2023-01-31T00:16:07;101237.87;;;4.32;93.63
48888;BME280;42598;53.802;-1.632;2023-01-31T00:18:35;101229.28;;;3.87;94.31
48888;BME280;42598;53.802;-1.632;2023-01-31T00:21:06;101231.14;;;3.95;93.51
48888;BME280;42598;53.802;-1.632;2023-01-31T00:23:34;101233.61;;;4.21;91.28
48888;BME280;42598;53.802;-1.632;2023-01-31T00:26:11;101230.72;;;4.09;92.80
48888;BME280;42598;53.802;-1.632;2023-01-31T00:28:40;101219.28;;;4.02;93.95
48888;BME280;42598;53.802;-1.632;2023-01-31T00:31:08;101222.87;;;3.75;93.60
48888;BME280;42598;53.802;-1.632;2023-01-31T00:33:36;101210.22;;;4.14;90.20
48888;BME280;42598;53.802;-1.632;2023-01-31T00:36:05;101209.17;;;4.14;89.37
48888;BME280;42598;53.802;-1.632;2023-01-31T00:38:33;101200.15;;;4.52;88.14
48888;BME280;42598;53.802;-1.632;2023-01-31T00:41:01;101201.94;;;3.77;90.50
48888;BME280;42598;53.802;-1.632;2023-01-31T00:43:29;101192.20;;;4.13;89.37
48888;BME280;42598;53.802;-1.632;2023-01-31T00:45:57;101178.32;;;4.75;85.66
48888;BME280;42598;53.802;-1.632;2023-01-31T00:48:24;101188.17;;;3.82;90.05
48888;BME280;42598;53.802;-1.632;2023-01-31T00:50:52;101167.39;;;4.26;88.77
48888;BME280;42598;53.802;-1.632;2023-01-31T00:53:20;101160.87;;;5.07;83.36
48888;BME280;42598;53.802;-1.632;2023-01-31T00:55:47;101158.37;;;4.42;85.49
48888;BME280;42598;53.802;-1.632;2023-01-31T00:58:14;101153.50;;;4.86;84.40
48888;BME280;42598;53.802;-1.632;2023-01-31T01:00:40;101152.46;;;4.85;84.39
48888;BME280;42598;53.802;-1.632;2023-01-31T01:03:08;101138.70;;;5.18;84.97
48888;BME280;42598;53.802;-1.632;2023-01-31T01:05:35;101148.23;;;4.09;87.39
48888;BME280;42598;53.802;-1.632;2023-01-31T01:08:02;101143.54;;;4.01;88.50
48888;BME280;42598;53.802;-1.632;2023-01-31T01:10:30;101134.16;;;4.42;87.62
48888;BME280;42598;53.802;-1.632;2023-01-31T01:12:57;101136.55;;;4.47;86.31
48888;BME280;42598;53.802;-1.632;2023-01-31T01:15:24;101127.64;;;4.93;82.90
48888;BME280;42598;53.802;-1.632;2023-01-31T01:17:51;101142.56;;;4.49;85.18
48888;BME280;42598;53.802;-1.632;2023-01-31T01:20:18;101125.41;;;4.65;86.45
48888;BME280;42598;53.802;-1.632;2023-01-31T01:22:46;101134.13;;;4.65;86.44
48888;BME280;42598;53.802;-1.632;2023-01-31T01:25:12;101126.43;;;4.50;91.39
48888;BME280;42598;53.802;-1.632;2023-01-31T01:27:40;101124.02;;;4.39;93.00
48888;BME280;42598;53.802;-1.632;2023-01-31T01:30:08;101115.76;;;4.61;91.13
48888;BME280;42598;53.802;-1.632;2023-01-31T01:32:35;101119.03;;;4.51;93.30
48888;BME280;42598;53.802;-1.632;2023-01-31T01:35:03;101116.53;;;3.67;95.91
48888;BME280;42598;53.802;-1.632;2023-01-31T01:37:30;101118.18;;;3.84;97.72
48888;BME280;42598;53.802;-1.632;2023-01-31T01:39:57;101111.02;;;3.81;100.00
48888;BME280;42598;53.802;-1.632;2023-01-31T01:42:25;101115.20;;;3.55;100.00
48888;BME280;42598;53.802;-1.632;2023-01-31T01:44:54;101108.00;;;3.71;100.00
48888;BME280;42598;53.802;-1.632;2023-01-31T01:47:32;101108.23;;;4.22;100.00
48888;BME280;42598;53.802;-1.632;2023-01-31T01:50:05;101093.81;;;4.01;100.00
48888;BME280;42598;53.802;-1.632;2023-01-31T01:52:36;101093.10;;;3.91;100.00
48888;BME280;42598;53.802;-1.632;2023-01-31T01:55:10;101087.28;;;3.78;100.00
48888;BME280;42598;53.802;-1.632;2023-01-31T01:57:41;101091.64;;;3.86;100.00
48888;BME280;42598;53.802;-1.632;2023-01-31T02:00:14;101094.98;;;4.12;100.00
48888;BME280;42598;53.802;-1.632;2023-01-31T02:02:45;101098.63;;;4.28;100.00
48888;BME280;42598;53.802;-1.632;2023-01-31T02:05:16;101098.62;;;4.79;100.00
48888;BME280;42598;53.802;-1.632;2023-01-31T02:07:45;101099.07;;;4.26;100.00
48888;BME280;42598;53.802;-1.632;2023-01-31T02:10:16;101101.56;;;4.02;100.00
48888;BME280;42598;53.802;-1.632;2023-01-31T02:12:46;101101.13;;;4.62;100.00
48888;BME280;42598;53.802;-1.632;2023-01-31T02:15:14;101098.42;;;4.46;100.00
48888;BME280;42598;53.802;-1.632;2023-01-31T02:17:41;101094.38;;;4.21;100.00
48888;BME280;42598;53.802;-1.632;2023-01-31T02:20:23;101102.32;;;4.02;100.00
48888;BME280;42598;53.802;-1.632;2023-01-31T02:23:10;101089.43;;;4.41;100.00
48888;BME280;42598;53.802;-1.632;2023-01-31T02:28:27;101069.56;;;4.70;100.00
48888;BME280;42598;53.802;-1.632;2023-01-31T02:31:37;101062.68;;;3.89;100.00
48888;BME280;42598;53.802;-1.632;2023-01-31T02:34:15;101051.85;;;4.19;100.00
48888;BME280;42598;53.802;-1.632;2023-01-31T02:36:54;101049.02;;;4.35;100.00
48888;BME280;42598;53.802;-1.632;2023-01-31T02:39:30;101047.43;;;4.09;100.00
48888;BME280;42598;53.802;-1.632;2023-01-31T02:42:06;101041.87;;;4.53;100.00
48888;BME280;42598;53.802;-1.632;2023-01-31T02:44:45;101031.70;;;4.38;100.00
48888;BME280;42598;53.802;-1.632;2023-01-31T02:47:23;101021.56;;;4.76;100.00
48888;BME280;42598;53.802;-1.632;2023-01-31T02:49:55;101024.24;;;4.27;100.00
48888;BME280;42598;53.802;-1.632;2023-01-31T02:52:27;101019.96;;;4.70;100.00
48888;BME280;42598;53.802;-1.632;2023-01-31T02:55:05;101014.33;;;5.09;100.00
48888;BME280;42598;53.802;-1.632;2023-01-31T02:57:34;101016.78;;;4.98;100.00
48888;BME280;42598;53.802;-1.632;2023-01-31T03:00:03;101013.70;;;4.85;100.00
48888;BME280;42598;53.802;-1.632;2023-01-31T03:02:31;101013.58;;;4.86;100.00
48888;BME280;42598;53.802;-1.632;2023-01-31T03:04:58;101006.80;;;4.36;100.00
48888;BME280;42598;53.802;-1.632;2023-01-31T03:07:27;101006.83;;;5.08;100.00
48888;BME280;42598;53.802;-1.632;2023-01-31T03:10:02;100999.22;;;4.56;100.00
48888;BME280;42598;53.802;-1.632;2023-01-31T03:12:48;100997.59;;;4.71;100.00
48888;BME280;42598;53.802;-1.632;2023-01-31T03:15:58;100998.83;;;4.61;100.00
48888;BME280;42598;53.802;-1.632;2023-01-31T03:18:29;100993.45;;;4.72;100.00
48888;BME280;42598;53.802;-1.632;2023-01-31T03:21:03;100983.75;;;5.07;100.00
48888;BME280;42598;53.802;-1.632;2023-01-31T03:23:33;100983.15;;;5.21;100.00
48888;BME280;42598;53.802;-1.632;2023-01-31T03:26:02;100980.28;;;4.75;100.00
48888;BME280;42598;53.802;-1.632;2023-01-31T03:28:33;100979.17;;;4.45;100.00
48888;BME280;42598;53.802;-1.632;2023-01-31T03:31:04;100981.94;;;4.47;100.00
48888;BME280;42598;53.802;-1.632;2023-01-31T03:33:37;100984.20;;;4.93;100.00
48888;BME280;42598;53.802;-1.632;2023-01-31T03:36:11;100972.38;;;4.76;100.00
48888;BME280;42598;53.802;-1.632;2023-01-31T03:38:48;100959.09;;;4.52;100.00
48888;BME280;42598;53.802;-1.632;2023-01-31T03:41:23;100959.94;;;4.50;100.00
48888;BME280;42598;53.802;-1.632;2023-01-31T03:43:58;100966.47;;;4.68;100.00
48888;BME280;42598;53.802;-1.632;2023-01-31T03:46:30;100954.96;;;5.05;100.00
48888;BME280;42598;53.802;-1.632;2023-01-31T03:49:02;100965.37;;;4.56;100.00
48888;BME280;42598;53.802;-1.632;2023-01-31T03:51:32;100965.41;;;4.81;100.00
48888;BME280;42598;53.802;-1.632;2023-01-31T03:54:02;100957.49;;;4.85;100.00
48888;BME280;42598;53.802;-1.632;2023-01-31T03:56:36;100951.69;;;4.99;100.00
48888;BME280;42598;53.802;-1.632;2023-01-31T03:59:09;100955.02;;;5.02;100.00
48888;BME280;42598;53.802;-1.632;2023-01-31T04:01:42;100953.85;;;5.58;100.00
48888;BME280;42598;53.802;-1.632;2023-01-31T04:04:13;100945.37;;;5.60;100.00
48888;BME280;42598;53.802;-1.632;2023-01-31T04:06:42;100948.18;;;5.56;100.00
48888;BME280;42598;53.802;-1.632;2023-01-31T04:09:09;100946.87;;;4.50;100.00
48888;BME280;42598;53.802;-1.632;2023-01-31T04:11:38;100942.96;;;4.97;100.00
48888;BME280;42598;53.802;-1.632;2023-01-31T04:14:07;100933.84;;;4.35;100.00
48888;BME280;42598;53.802;-1.632;2023-01-31T04:16:34;100922.54;;;5.06;100.00
48888;BME280;42598;53.802;-1.632;2023-01-31T04:19:01;100918.29;;;4.71;100.00
48888;BME280;42598;53.802;-1.632;2023-01-31T04:21:28;100901.41;;;4.63;100.00
48888;BME280;42598;53.802;-1.632;2023-01-31T04:23:55;100913.71;;;4.68;100.00
48888;BME280;42598;53.802;-1.632;2023-01-31T04:26:22;100908.33;;;4.27;100.00
48888;BME280;42598;53.802;-1.632;2023-01-31T04:28:48;100897.48;;;4.71;100.00
48888;BME280;42598;53.802;-1.632;2023-01-31T04:31:16;100889.91;;;4.46;100.00
48888;BME280;42598;53.802;-1.632;2023-01-31T04:33:43;100885.95;;;4.68;100.00
48888;BME280;42598;53.802;-1.632;2023-01-31T04:36:10;100884.21;;;4.46;100.00
48888;BME280;42598;53.802;-1.632;2023-01-31T04:38:37;100883.92;;;4.55;100.00
48888;BME280;42598;53.802;-1.632;2023-01-31T04:41:04;100890.36;;;4.54;100.00
48888;BME280;42598;53.802;-1.632;2023-01-31T04:43:31;100870.37;;;4.71;100.00
48888;BME280;42598;53.802;-1.632;2023-01-31T04:45:59;100871.89;;;4.67;100.00
48888;BME280;42598;53.802;-1.632;2023-01-31T04:48:25;100866.51;;;4.90;100.00
48888;BME280;42598;53.802;-1.632;2023-01-31T04:50:52;100862.55;;;4.87;100.00
48888;BME280;42598;53.802;-1.632;2023-01-31T04:53:19;100862.97;;;4.73;100.00
48888;BME280;42598;53.802;-1.632;2023-01-31T04:55:46;100851.97;;;4.84;100.00
48888;BME280;42598;53.802;-1.632;2023-01-31T04:58:13;100847.74;;;4.72;100.00
48888;BME280;42598;53.802;-1.632;2023-01-31T05:00:40;100848.70;;;4.76;100.00
48888;BME280;42598;53.802;-1.632;2023-01-31T05:03:07;100863.44;;;4.67;100.00
48888;BME280;42598;53.802;-1.632;2023-01-31T05:05:34;100859.18;;;4.96;100.00
48888;BME280;42598;53.802;-1.632;2023-01-31T05:08:00;100863.59;;;5.23;100.00
48888;BME280;42598;53.802;-1.632;2023-01-31T05:10:28;100862.94;;;4.79;100.00
48888;BME280;42598;53.802;-1.632;2023-01-31T05:12:55;100858.26;;;5.06;100.00
48888;BME280;42598;53.802;-1.632;2023-01-31T05:15:22;100871.26;;;4.50;100.00
48888;BME280;42598;53.802;-1.632;2023-01-31T05:17:51;100863.94;;;4.53;100.00
48888;BME280;42598;53.802;-1.632;2023-01-31T05:20:19;100858.01;;;4.30;100.00
48888;BME280;42598;53.802;-1.632;2023-01-31T05:22:47;100840.73;;;4.53;100.00
48888;BME280;42598;53.802;-1.632;2023-01-31T05:25:14;100866.31;;;4.10;100.00
48888;BME280;42598;53.802;-1.632;2023-01-31T05:27:42;100850.41;;;4.89;100.00
48888;BME280;42598;53.802;-1.632;2023-01-31T05:30:10;100865.65;;;4.56;100.00
48888;BME280;42598;53.802;-1.632;2023-01-31T05:32:36;100849.77;;;4.42;100.00
48888;BME280;42598;53.802;-1.632;2023-01-31T05:35:04;100837.37;;;4.68;100.00
48888;BME280;42598;53.802;-1.632;2023-01-31T05:37:31;100834.07;;;4.84;100.00
48888;BME280;42598;53.802;-1.632;2023-01-31T05:39:58;100831.68;;;4.58;100.00
48888;BME280;42598;53.802;-1.632;2023-01-31T05:42:25;100848.83;;;4.57;100.00
48888;BME280;42598;53.802;-1.632;2023-01-31T05:44:52;100847.75;;;4.66;100.00
48888;BME280;42598;53.802;-1.632;2023-01-31T05:47:19;100844.11;;;5.00;100.00
48888;BME280;42598;53.802;-1.632;2023-01-31T05:49:46;100839.10;;;4.74;100.00
48888;BME280;42598;53.802;-1.632;2023-01-31T05:52:13;100841.53;;;4.63;100.00
48888;BME280;42598;53.802;-1.632;2023-01-31T05:54:39;100829.72;;;4.95;100.00
48888;BME280;42598;53.802;-1.632;2023-01-31T05:57:06;100830.74;;;5.08;100.00
48888;BME280;42598;53.802;-1.632;2023-01-31T05:59:33;100814.26;;;4.86;100.00
48888;BME280;42598;53.802;-1.632;2023-01-31T06:02:00;100828.17;;;4.59;100.00
48888;BME280;42598;53.802;-1.632;2023-01-31T06:04:27;100818.00;;;4.50;100.00
48888;BME280;42598;53.802;-1.632;2023-01-31T06:06:54;100827.09;;;4.61;100.00
48888;BME280;42598;53.802;-1.632;2023-01-31T06:09:21;100818.54;;;4.35;100.00
48888;BME280;42598;53.802;-1.632;2023-01-31T06:11:50;100823.75;;;4.52;100.00
48888;BME280;42598;53.802;-1.632;2023-01-31T06:14:17;100824.02;;;4.61;100.00
48888;BME280;42598;53.802;-1.632;2023-01-31T06:16:44;100815.09;;;4.51;100.00
48888;BME280;42598;53.802;-1.632;2023-01-31T06:19:11;100828.16;;;5.13;100.00
48888;BME280;42598;53.802;-1.632;2023-01-31T06:21:38;100834.50;;;4.98;100.00
48888;BME280;42598;53.802;-1.632;2023-01-31T06:24:06;100832.64;;;4.62;100.00
48888;BME280;42598;53.802;-1.632;2023-01-31T06:26:33;100831.89;;;4.86;100.00
48888;BME280;42598;53.802;-1.632;2023-01-31T06:29:00;100848.84;;;5.06;100.00
48888;BME280;42598;53.802;-1.632;2023-01-31T06:31:27;100828.26;;;5.46;100.00
48888;BME280;42598;53.802;-1.632;2023-01-31T06:33:54;100830.41;;;5.02;100.00
48888;BME280;42598;53.802;-1.632;2023-01-31T06:36:20;100837.55;;;5.07;100.00
48888;BME280;42598;53.802;-1.632;2023-01-31T06:38:49;100828.91;;;5.26;100.00
48888;BME280;42598;53.802;-1.632;2023-01-31T06:41:16;100835.61;;;5.12;100.00
48888;BME280;42598;53.802;-1.632;2023-01-31T06:43:44;100831.40;;;5.43;100.00
48888;BME280;42598;53.802;-1.632;2023-01-31T06:46:11;100832.89;;;5.15;100.00
48888;BME280;42598;53.802;-1.632;2023-01-31T06:48:38;100855.49;;;4.74;100.00
48888;BME280;42598;53.802;-1.632;2023-01-31T06:51:06;100852.77;;;5.14;100.00
48888;BME280;42598;53.802;-1.632;2023-01-31T06:53:33;100828.63;;;5.48;100.00
48888;BME280;42598;53.802;-1.632;2023-01-31T06:56:00;100827.29;;;5.08;100.00
48888;BME280;42598;53.802;-1.632;2023-01-31T06:58:27;100833.70;;;5.02;100.00
48888;BME280;42598;53.802;-1.632;2023-01-31T07:00:54;100842.24;;;4.85;100.00
48888;BME280;42598;53.802;-1.632;2023-01-31T07:03:21;100827.98;;;5.05;100.00
48888;BME280;42598;53.802;-1.632;2023-01-31T07:05:48;100821.19;;;5.36;100.00
48888;BME280;42598;53.802;-1.632;2023-01-31T07:08:15;100835.82;;;4.96;100.00
48888;BME280;42598;53.802;-1.632;2023-01-31T07:10:42;100856.95;;;5.18;100.00
48888;BME280;42598;53.802;-1.632;2023-01-31T07:13:10;100864.39;;;5.18;100.00
48888;BME280;42598;53.802;-1.632;2023-01-31T07:15:37;100876.24;;;4.89;100.00
48888;BME280;42598;53.802;-1.632;2023-01-31T07:18:05;100883.10;;;5.01;100.00
48888;BME280;42598;53.802;-1.632;2023-01-31T07:20:31;100880.15;;;4.99;100.00
48888;BME280;42598;53.802;-1.632;2023-01-31T07:22:59;100885.73;;;4.59;100.00
48888;BME280;42598;53.802;-1.632;2023-01-31T07:25:26;100880.28;;;4.41;100.00
48888;BME280;42598;53.802;-1.632;2023-01-31T07:27:54;100886.88;;;4.42;100.00
48888;BME280;42598;53.802;-1.632;2023-01-31T07:30:21;100894.42;;;4.69;100.00
48888;BME280;42598;53.802;-1.632;2023-01-31T07:32:49;100890.52;;;4.49;100.00
48888;BME280;42598;53.802;-1.632;2023-01-31T07:35:16;100901.21;;;4.87;100.00
48888;BME280;42598;53.802;-1.632;2023-01-31T07:37:44;100904.21;;;4.82;100.00
48888;BME280;42598;53.802;-1.632;2023-01-31T07:40:13;100907.64;;;4.40;100.00
48888;BME280;42598;53.802;-1.632;2023-01-31T07:42:41;100934.13;;;4.55;100.00
48888;BME280;42598;53.802;-1.632;2023-01-31T07:45:11;100926.40;;;4.45;100.00
48888;BME280;42598;53.802;-1.632;2023-01-31T07:47:38;100918.86;;;4.63;100.00
48888;BME280;42598;53.802;-1.632;2023-01-31T07:50:08;100934.76;;;4.13;100.00
48888;BME280;42598;53.802;-1.632;2023-01-31T07:52:35;100930.31;;;4.48;100.00
48888;BME280;42598;53.802;-1.632;2023-01-31T07:55:02;100922.73;;;4.31;100.00
48888;BME280;42598;53.802;-1.632;2023-01-31T07:57:30;100931.12;;;4.33;100.00
48888;BME280;42598;53.802;-1.632;2023-01-31T07:59:57;100920.59;;;4.01;100.00
48888;BME280;42598;53.802;-1.632;2023-01-31T08:02:24;100927.66;;;4.21;100.00
48888;BME280;42598;53.802;-1.632;2023-01-31T08:04:51;100928.63;;;4.38;100.00
48888;BME280;42598;53.802;-1.632;2023-01-31T08:07:18;100926.29;;;4.29;100.00
48888;BME280;42598;53.802;-1.632;2023-01-31T08:09:45;100925.56;;;4.46;100.00
48888;BME280;42598;53.802;-1.632;2023-01-31T08:12:12;100918.56;;;4.42;100.00
48888;BME280;42598;53.802;-1.632;2023-01-31T08:14:39;100917.26;;;4.39;100.00
48888;BME280;42598;53.802;-1.632;2023-01-31T08:17:06;100918.93;;;4.11;100.00
48888;BME280;42598;53.802;-1.632;2023-01-31T08:19:33;100909.07;;;4.07;100.00
48888;BME280;42598;53.802;-1.632;2023-01-31T08:22:01;100912.32;;;4.26;100.00
48888;BME280;42598;53.802;-1.632;2023-01-31T08:24:29;100920.96;;;4.08;100.00
48888;BME280;42598;53.802;-1.632;2023-01-31T08:26:57;100925.36;;;3.70;100.00
48888;BME280;42598;53.802;-1.632;2023-01-31T08:29:24;100918.21;;;4.37;100.00
48888;BME280;42598;53.802;-1.632;2023-01-31T08:31:51;100932.16;;;4.01;100.00
48888;BME280;42598;53.802;-1.632;2023-01-31T08:34:19;100922.04;;;4.54;100.00
48888;BME280;42598;53.802;-1.632;2023-01-31T08:36:46;100917.26;;;3.91;100.00
48888;BME280;42598;53.802;-1.632;2023-01-31T08:39:13;100917.62;;;4.37;100.00
48888;BME280;42598;53.802;-1.632;2023-01-31T08:41:41;100922.74;;;4.62;100.00
48888;BME280;42598;53.802;-1.632;2023-01-31T08:44:10;100927.20;;;4.61;100.00
48888;BME280;42598;53.802;-1.632;2023-01-31T08:46:37;100925.46;;;4.52;100.00
48888;BME280;42598;53.802;-1.632;2023-01-31T08:49:05;100929.73;;;4.05;100.00
48888;BME280;42598;53.802;-1.632;2023-01-31T08:51:32;100943.74;;;4.08;100.00
48888;BME280;42598;53.802;-1.632;2023-01-31T08:54:00;100931.56;;;4.26;100.00
48888;BME280;42598;53.802;-1.632;2023-01-31T08:56:27;100948.06;;;4.50;100.00
48888;BME280;42598;53.802;-1.632;2023-01-31T08:58:55;100940.83;;;4.82;100.00
48888;BME280;42598;53.802;-1.632;2023-01-31T09:01:23;100933.49;;;4.56;100.00
48888;BME280;42598;53.802;-1.632;2023-01-31T09:03:50;100939.71;;;4.59;100.00
48888;BME280;42598;53.802;-1.632;2023-01-31T09:06:18;100939.51;;;4.40;100.00
48888;BME280;42598;53.802;-1.632;2023-01-31T09:08:46;100952.94;;;4.79;100.00
48888;BME280;42598;53.802;-1.632;2023-01-31T09:11:13;100959.36;;;4.90;100.00
48888;BME280;42598;53.802;-1.632;2023-01-31T09:13:41;100953.03;;;4.96;100.00
48888;BME280;42598;53.802;-1.632;2023-01-31T09:16:10;100961.45;;;4.92;100.00
48888;BME280;42598;53.802;-1.632;2023-01-31T09:18:38;100968.57;;;4.82;100.00
48888;BME280;42598;53.802;-1.632;2023-01-31T09:21:07;100986.42;;;5.21;100.00
48888;BME280;42598;53.802;-1.632;2023-01-31T09:23:35;100985.65;;;4.56;100.00
48888;BME280;42598;53.802;-1.632;2023-01-31T09:26:03;100996.92;;;5.09;100.00
48888;BME280;42598;53.802;-1.632;2023-01-31T09:28:32;100999.46;;;4.94;100.00
48888;BME280;42598;53.802;-1.632;2023-01-31T09:31:02;100992.49;;;5.20;100.00
48888;BME280;42598;53.802;-1.632;2023-01-31T09:33:31;101005.85;;;5.50;100.00
48888;BME280;42598;53.802;-1.632;2023-01-31T09:36:01;101001.18;;;5.52;100.00
48888;BME280;42598;53.802;-1.632;2023-01-31T09:38:29;101000.78;;;5.09;100.00
48888;BME280;42598;53.802;-1.632;2023-01-31T09:40:58;101003.15;;;6.13;100.00
48888;BME280;42598;53.802;-1.632;2023-01-31T09:43:39;100993.35;;;5.59;99.76
48888;BME280;42598;53.802;-1.632;2023-01-31T09:46:21;101000.96;;;5.49;100.00
48888;BME280;42598;53.802;-1.632;2023-01-31T09:48:52;100994.85;;;5.81;98.31
48888;BME280;42598;53.802;-1.632;2023-01-31T09:51:22;100990.52;;;5.19;97.58
48888;BME280;42598;53.802;-1.632;2023-01-31T09:53:49;100997.53;;;5.29;97.31
48888;BME280;42598;53.802;-1.632;2023-01-31T09:56:24;101003.11;;;5.68;95.14
48888;BME280;42598;53.802;-1.632;2023-01-31T09:58:57;101003.60;;;6.03;93.43
48888;BME280;42598;53.802;-1.632;2023-01-31T10:01:31;101010.11;;;5.78;94.30
48888;BME280;42598;53.802;-1.632;2023-01-31T10:04:12;101001.68;;;5.89;92.97
48888;BME280;42598;53.802;-1.632;2023-01-31T10:06:49;101021.03;;;6.50;94.29
48888;BME280;42598;53.802;-1.632;2023-01-31T10:09:26;101024.95;;;6.12;95.49
48888;BME280;42598;53.802;-1.632;2023-01-31T10:11:58;101023.74;;;6.21;95.89
48888;BME280;42598;53.802;-1.632;2023-01-31T10:14:34;101025.04;;;6.22;96.73
48888;BME280;42598;53.802;-1.632;2023-01-31T10:17:08;101043.76;;;6.51;93.53
48888;BME280;42598;53.802;-1.632;2023-01-31T10:19:43;101042.52;;;7.18;91.41
48888;BME280;42598;53.802;-1.632;2023-01-31T10:22:17;101057.28;;;6.94;90.88
48888;BME280;42598;53.802;-1.632;2023-01-31T10:24:51;101056.78;;;6.21;94.28
48888;BME280;42598;53.802;-1.632;2023-01-31T10:27:35;101059.95;;;6.37;91.93
48888;BME280;42598;53.802;-1.632;2023-01-31T10:30:06;101069.49;;;5.95;93.11
48888;BME280;42598;53.802;-1.632;2023-01-31T10:32:40;101055.71;;;6.24;91.28
48888;BME280;42598;53.802;-1.632;2023-01-31T10:35:12;101061.47;;;6.73;90.06
48888;BME280;42598;53.802;-1.632;2023-01-31T10:37:46;101047.91;;;6.35;90.71
48888;BME280;42598;53.802;-1.632;2023-01-31T10:40:18;101060.51;;;7.57;85.79
48888;BME280;42598;53.802;-1.632;2023-01-31T10:42:50;101064.27;;;6.76;84.58
48888;BME280;42598;53.802;-1.632;2023-01-31T10:45:18;101075.48;;;6.67;86.99
48888;BME280;42598;53.802;-1.632;2023-01-31T10:47:49;101059.61;;;6.91;83.37
48888;BME280;42598;53.802;-1.632;2023-01-31T10:50:19;101072.94;;;7.89;78.11
48888;BME280;42598;53.802;-1.632;2023-01-31T10:53:04;101076.75;;;7.68;76.39
48888;BME280;42598;53.802;-1.632;2023-01-31T10:55:50;101072.23;;;7.34;76.88
48888;BME280;42598;53.802;-1.632;2023-01-31T10:58:21;101073.48;;;8.36;74.69
48888;BME280;42598;53.802;-1.632;2023-01-31T11:00:49;101065.99;;;8.33;72.26
48888;BME280;42598;53.802;-1.632;2023-01-31T11:03:17;101080.81;;;8.20;73.76
48888;BME280;42598;53.802;-1.632;2023-01-31T11:05:47;101074.93;;;8.36;72.57
48888;BME280;42598;53.802;-1.632;2023-01-31T11:08:34;101075.45;;;7.16;78.85
48888;BME280;42598;53.802;-1.632;2023-01-31T11:11:07;101083.42;;;7.68;76.54
48888;BME280;42598;53.802;-1.632;2023-01-31T11:13:35;101091.57;;;7.21;76.22
48888;BME280;42598;53.802;-1.632;2023-01-31T11:16:05;101086.19;;;7.86;74.76
48888;BME280;42598;53.802;-1.632;2023-01-31T11:18:37;101098.41;;;7.78;73.11
48888;BME280;42598;53.802;-1.632;2023-01-31T11:21:09;101077.31;;;7.78;74.22
48888;BME280;42598;53.802;-1.632;2023-01-31T11:23:44;101089.68;;;8.35;68.17
48888;BME280;42598;53.802;-1.632;2023-01-31T11:26:11;101102.72;;;8.17;65.90
48888;BME280;42598;53.802;-1.632;2023-01-31T11:28:40;101119.01;;;8.06;65.38
48888;BME280;42598;53.802;-1.632;2023-01-31T11:31:18;101106.36;;;8.22;63.52
48888;BME280;42598;53.802;-1.632;2023-01-31T11:33:56;101097.58;;;7.21;65.01
48888;BME280;42598;53.802;-1.632;2023-01-31T11:36:23;101111.63;;;8.05;64.18
48888;BME280;42598;53.802;-1.632;2023-01-31T11:38:52;101111.86;;;7.77;62.69
48888;BME280;42598;53.802;-1.632;2023-01-31T11:41:36;101097.39;;;7.75;60.05
48888;BME280;42598;53.802;-1.632;2023-01-31T11:44:13;101103.40;;;8.98;56.65
48888;BME280;42598;53.802;-1.632;2023-01-31T11:46:45;101093.61;;;8.13;55.72
48888;BME280;42598;53.802;-1.632;2023-01-31T11:49:20;101092.80;;;8.25;55.56
48888;BME280;42598;53.802;-1.632;2023-01-31T11:51:49;101093.25;;;8.46;55.35
48888;BME280;42598;53.802;-1.632;2023-01-31T11:54:20;101104.44;;;9.22;53.76
48888;BME280;42598;53.802;-1.632;2023-01-31T11:56:49;101119.04;;;8.71;51.49
48888;BME280;42598;53.802;-1.632;2023-01-31T11:59:20;101107.09;;;8.46;53.22
48888;BME280;42598;53.802;-1.632;2023-01-31T12:01:51;101121.33;;;7.33;57.16
48888;BME280;42598;53.802;-1.632;2023-01-31T12:04:22;101124.81;;;8.01;55.86
48888;BME280;42598;53.802;-1.632;2023-01-31T12:07:00;101120.99;;;7.84;55.75
48888;BME280;42598;53.802;-1.632;2023-01-31T12:09:30;101129.78;;;6.97;58.10
48888;BME280;42598;53.802;-1.632;2023-01-31T12:12:22;101120.39;;;6.35;63.00
48888;BME280;42598;53.802;-1.632;2023-01-31T12:14:49;101114.69;;;6.84;61.47
48888;BME280;42598;53.802;-1.632;2023-01-31T12:17:17;101113.79;;;8.59;57.35
48888;BME280;42598;53.802;-1.632;2023-01-31T12:19:56;101110.54;;;8.39;57.65
48888;BME280;42598;53.802;-1.632;2023-01-31T12:22:30;101119.28;;;7.75;59.48
48888;BME280;42598;53.802;-1.632;2023-01-31T12:25:07;101114.44;;;8.20;59.74
48888;BME280;42598;53.802;-1.632;2023-01-31T12:27:48;101117.27;;;7.41;62.67
48888;BME280;42598;53.802;-1.632;2023-01-31T12:30:31;101123.21;;;7.61;62.33
48888;BME280;42598;53.802;-1.632;2023-01-31T12:33:12;101120.15;;;8.19;59.70
48888;BME280;42598;53.802;-1.632;2023-01-31T12:35:51;101122.01;;;8.02;57.86
48888;BME280;42598;53.802;-1.632;2023-01-31T12:38:32;101114.91;;;7.44;57.31
48888;BME280;42598;53.802;-1.632;2023-01-31T12:41:11;101120.18;;;7.68;56.97
48888;BME280;42598;53.802;-1.632;2023-01-31T12:43:52;101107.89;;;8.39;54.95
48888;BME280;42598;53.802;-1.632;2023-01-31T12:46:31;101107.00;;;8.60;54.23
48888;BME280;42598;53.802;-1.632;2023-01-31T12:49:16;101100.99;;;8.31;52.67
48888;BME280;42598;53.802;-1.632;2023-01-31T12:51:56;101103.90;;;8.15;52.28
48888;BME280;42598;53.802;-1.632;2023-01-31T12:54:38;101097.87;;;8.58;50.88
48888;BME280;42598;53.802;-1.632;2023-01-31T12:57:23;101085.71;;;8.26;52.86
48888;BME280;42598;53.802;-1.632;2023-01-31T12:59:58;101102.66;;;9.11;50.62
48888;BME280;42598;53.802;-1.632;2023-01-31T13:02:39;101103.06;;;9.51;50.26